Historyczne dane pomiarowe

Dodano dane terminowe – wersja testowa.

Dane z okresu 1951-2019

Wersja bazy: 1.34 [2019-03-16, lista zmian], aktualizacja planowana na 2019-04-15

Dane meteo z obszaru Polski uzyskane na podstawie danych udostępnionych przez Instytut Meteorologii i Gospodarki Wodnej – Państwowy Instytut Badawczy.

 

Wybierz Datę:    

       

TemperaturaWilgotnośćWiatrCiśnienieOpadyŚniegCzas trwania zjawisk
 Stacja t tx tn tng RH VA  wxwx mslp ppp RRR   cm mm wxwxwxwxwxwxwx
1999-08-14 11.7 18.0 5.3 0.7 82.3- 4.0 4.0---- 0.0------------
1999-08-13 12.1 16.5 7.6 3.6 85.5- 5.7 3.3---- 0.0------------
1999-08-12 13.3 18.2 10.7 10.0 92.3- 7.7 3.3---- 0.0------------
1999-08-11 17.6 22.1 13.7 10.0 84.3- 5.0 4.0---- 13.7------------
1999-08-10 19.4 26.5 13.7 9.4 89.8- 7.3 4.0---- 3.0------------
1999-08-09 19.3 28.0 12.7 8.5 87.0- 5.0 3.3---- 3.6------------
1999-08-08 19.0 26.0 11.7 8.5 86.5- 5.3 3.3---- 0.0------------
1999-08-07 18.5 26.0 11.7 8.0 89.3- 5.0 4.0---- 1.3------------
1999-08-06 19.0 25.0 13.2 10.4 78.3- 6.0 3.3---- 4.3------------
1999-08-05 15.4 23.5 7.8 3.6 80.5- 3.7 3.3---- 0.4------------
1999-08-04 14.4 21.6 8.0 3.2 80.8- 4.0 3.3---- 0.0------------
1999-08-03 13.5 19.6 7.8 3.6 83.5- 4.7 3.3---- 0.2------------
1999-08-02 14.1 19.1 8.3 3.6 81.5- 5.0 4.7---- 0.0------------
1999-08-01 14.8 20.1 9.7 6.8 77.8- 4.7 4.7---- 0.2------------
1999-07-31 14.1 21.1 7.8 3.6 75.5- 3.7 4.0---- 0.0------------
1999-07-30 13.8 20.6 7.3 2.7 85.0- 5.0 3.3---- 0.0------------
1999-07-29 15.3 20.1 9.7 6.1 75.3- 4.7 4.0---- 0.0------------
1999-07-28 16.4 21.1 13.2 12.4 86.3- 6.0 3.3---- 0.0------------
1999-07-27 16.5 19.1 14.2 10.4 95.5- 8.0 1.3---- 13.7------------
1999-07-26 17.4 23.2 11.2 7.0 89.3- 5.0 4.0---- 0.0------------
1999-07-25 15.6 21.6 8.3 4.6 84.5- 4.7 4.0---- 0.0------------
1999-07-24 13.6 17.0 11.1 9.5 90.8- 6.7 4.0---- 0.3------------
1999-07-23 12.5 16.5 10.7 10.7 95.3- 8.0 2.7---- 24.1------------
1999-07-22 16.7 19.9 12.7 10.0 78.8- 6.3 4.0---- 10.0------------
1999-07-21 19.0 26.0 13.7 9.5 81.8- 4.7 6.0---- 1.5------------
1999-07-20 19.2 26.0 11.2 7.5 68.5- 3.7 4.0---- 0.0------------
1999-07-19 17.0 24.5 8.4 5.1 78.3- 4.3 4.0---- 0.0------------
1999-07-18 14.6 23.0 5.3 3.6 74.0- 3.3 4.0---- 0.0------------
1999-07-17 14.3 20.1 7.8 4.6 78.8- 4.3 4.0---- 0.0------------
1999-07-16 14.3 19.6 9.7 6.6 78.5- 4.0 4.0---- 0.0------------
1999-07-15 14.6 18.0 12.5 11.0 80.0- 6.0 4.0---- 0.6------------
1999-07-14 19.0 24.5 15.2 13.9 75.0- 6.7 5.3---- 4.7------------
1999-07-13 18.3 23.0 14.0 11.6 82.5- 6.7 4.7---- 5.6------------
1999-07-12 18.6 25.0 12.2 9.2 84.3- 6.3 4.0---- 2.1------------
1999-07-11 17.4 19.1 15.9 15.4 93.8- 6.7 4.0---- 7.2------------
1999-07-10 17.3 19.1 16.3 15.9 92.5- 8.0 4.0---- 0.0------------
1999-07-09 16.2 18.0 14.2 13.9 96.3- 8.0 4.0---- 31.1------------
1999-07-08 16.4 20.1 14.5 13.9 96.3- 8.0 4.0---- 12.6------------
1999-07-07 21.0 26.2 16.8 12.4 80.8- 6.7 4.0---- 28.2------------
1999-07-06 24.5 29.5 19.3 12.9 55.0- 3.0 6.0---- 0.0------------
1999-07-05 22.5 29.0 13.7 10.4 59.0- 2.3 4.0---- 0.0------------
1999-07-04 19.3 28.5 11.2 8.5 85.0- 2.7 4.0---- 0.0------------
1999-07-03 17.7 23.0 11.7 8.5 72.8- 5.0 4.0---- 0.0------------
1999-07-02 17.1 21.8 12.2 9.0 78.8- 5.3 4.0---- 0.0------------
1999-07-01 17.7 22.5 10.7 7.5 77.5- 6.3 2.7---- 1.0------------
1999-06-30 17.0 22.1 11.2 8.0 84.5- 4.7 4.0---- 0.0------------
1999-06-29 17.6 22.5 12.5 10.0 66.5- 4.3 4.0---- 0.0------------
1999-06-28 17.5 26.0 9.7 6.6 71.8- 5.3 5.3---- 11.8------------
1999-06-27 17.2 26.0 8.7 5.6 65.0- 3.0 4.0---- 0.0------------
1999-06-26 15.6 23.0 4.9 2.2 56.0- 4.0 5.3---- 0.0------------
1999-06-25 10.7 17.0 2.4 -0.3 73.5- 4.7 4.0---- 0.0------------
1999-06-24 9.5 12.0 6.7 6.6 82.8- 5.7 4.0---- 0.0------------
1999-06-23 7.3 8.5 5.8 4.9 96.0- 8.0 4.0---- 2.4------------
1999-06-22 8.0 13.1 4.9 4.9 95.3- 8.0 3.3---- 24.0------------
1999-06-21 15.8 21.1 11.2 8.5 78.3- 6.7 4.0---- 27.8------------
1999-06-20 15.8 20.1 12.7 11.9 89.5- 6.0 4.0---- 0.8------------
1999-06-19 14.1 17.5 11.7 11.4 90.8- 8.0 3.3---- 0.2------------
1999-06-18 14.4 16.5 13.1 13.1 95.3- 8.0 0.7---- 10.5------------
1999-06-17 16.2 19.6 13.9 13.9 97.0- 7.7 1.3---- 7.6------------
1999-06-16 15.4 18.0 13.2 13.1 94.5- 7.7 3.3---- 1.2------------
297.1 ms

 

Źródłem pochodzenia danych jest Instytut Meteorologii i Gospodarki Wodnej – Państwowy Instytut Badawczy. Dane Instytutu Meteorologii i Gospodarki Wodnej – Państwowego Instytutu Badawczego zostały przetworzone.

Dane źródłowe można odnaleźć na stronie https://dane.imgw.pl